Umm Slal — V7PW3 — position and weather

sailwx.info

Track history (hours):
 
Tides and Currents Weather Stations Pressure Air Temp Water Temp Dewpoint Dewpoint Depression Visibility Wind Speed Wind Dir Waves Ship Positions

Umm Slal

Last reported at 2015-Jun-08 19:27 UTC. Time now 2015-Jul-05 15:04 UTC.
Position N 30°32' E 032°19'.
Warning: this ship's position is 26 days out of date.

Length 345 m; draft 9.3 m.

Type: Ship (hazmat cat A). MMSI: 538003300.

Date/timePositionNaut miles runAvg speedWind from/ knotsBaromVisibWave heightAir tempDewpointWater temp
2015-Jun-08 19:27N 30°32' E 032°19'6 6.7
2015-Jun-08 18:33N 30°38' E 032°20'12 8.6
2015-Jun-08 17:10N 30°50' E 032°19'5 8.8
2015-Jun-08 16:33N 30°56' E 032°19'9 9.1
2015-Jun-08 15:33N 31°05' E 032°19'8 8.5
2015-Jun-08 14:33N 31°13' E 032°21'9 9.0
2015-Jun-08 13:33N 31°22' E 032°23'5 5.3
2015-Jun-08 12:33N 31°25' E 032°18'2 2.2
2015-Jun-08 11:29N 31°24' E 032°16'0 0.0
2015-Jun-08 10:33N 31°24' E 032°16'0 0.0
2015-Jun-08 09:24N 31°24' E 032°16'0 0.0
2015-Jun-08 08:31N 31°24' E 032°16'0 0.0
2015-Jun-08 07:32N 31°24' E 032°16'0 0.0
2015-Jun-08 06:32N 31°24' E 032°16'0 0.0
2015-Jun-08 05:33N 31°24' E 032°16'0 0.0
2015-Jun-08 04:31N 31°24' E 032°16'0 0.0
2015-Jun-08 03:31N 31°24' E 032°16'0 0.0
2015-Jun-08 00:24N 31°24' E 032°16'0 0.0
2015-Jun-07 23:19N 31°24' E 032°16'0 0.0
2015-Jun-07 21:23N 31°24' E 032°16'0 0.0
2015-Jun-07 19:10N 31°24' E 032°16'0 0.1
2015-Jun-07 17:09N 31°24' E 032°16'1 1.7
2015-Jun-07 16:33N 31°25' E 032°16'1211.5
2015-Jun-07 15:33N 31°35' E 032°09'1716.0
2015-Jun-07 14:30N 31°46' E 031°54'2016.2
2015-Jun-07 13:17N 31°54' E 031°33'1516.3
2015-Jun-07 12:21N 31°59' E 031°16'78716.1
2015-Jun-05 11:33N 35°47' E 016°09'1616.3
2015-Jun-05 10:33N 35°52' E 015°50'1616.2
2015-Jun-05 09:33N 35°58' E 015°31'1616.1
2015-Jun-05 08:33N 36°03' E 015°12'1616.2
2015-Jun-05 07:33N 36°08' E 014°53'1616.0
2015-Jun-05 06:33N 36°12' E 014°34'1616.0
2015-Jun-05 05:33N 36°17' E 014°15'1616.1
2015-Jun-05 04:33N 36°22' E 013°56'1616.3
2015-Jun-05 03:33N 36°29' E 013°37'1716.4
2015-Jun-05 02:31N 36°36' E 013°18'3916.2
2015-Jun-05 00:06N 36°51' E 012°33'1116.7
2015-Jun-04 23:26N 36°56' E 012°20'1716.2
2015-Jun-04 22:24N 37°03' E 012°01'1416.4
2015-Jun-04 21:33N 37°09' E 011°45'1616.3
2015-Jun-04 20:33N 37°17' E 011°27'1716.3
2015-Jun-04 19:32N 37°24' E 011°09'1616.2
2015-Jun-04 18:33N 37°31' E 010°51'1616.3
2015-Jun-04 17:33N 37°37' E 010°32'1916.1
2015-Jun-04 16:21N 37°45' E 010°09'1316.0
2015-Jun-04 15:33N 37°47' E 009°54'1616.2
2015-Jun-04 14:34N 37°50' E 009°33'1616.1
2015-Jun-04 13:33N 37°53' E 009°13'1616.2
2015-Jun-04 12:33N 37°58' E 008°54'1616.2
2015-Jun-04 11:33N 37°56' E 008°33'1616.2
2015-Jun-04 10:33N 37°54' E 008°13'1616.0
2015-Jun-04 09:32N 37°52' E 007°52'3616.4
2015-Jun-04 07:20N 37°48' E 007°07'9516.2
2015-Jun-04 01:29N 37°37' E 005°08'1516.2
2015-Jun-04 00:33N 37°35' E 004°49'1616.3
2015-Jun-03 23:32N 37°33' E 004°28'1616.7
2015-Jun-03 22:33N 37°30' E 004°08'1616.3
2015-Jun-03 21:33N 37°28' E 003°47'1616.5
2015-Jun-03 20:33N 37°26' E 003°27'2016.2
2015-Jun-03 19:19N 37°23' E 003°02'1216.3
2015-Jun-03 18:33N 37°22' E 002°47'1616.3
2015-Jun-03 17:33N 37°20' E 002°26'1616.1
2015-Jun-03 16:33N 37°17' E 002°06'1716.6
2015-Jun-03 15:33N 37°12' E 001°46'1716.6
2015-Jun-03 14:33N 37°09' E 001°26'1616.3
2015-Jun-03 13:34N 37°06' E 001°06'1616.1
2015-Jun-03 12:33N 37°00' E 000°47'1616.1
2015-Jun-03 11:33N 36°56' E 000°28'1616.4
2015-Jun-03 10:33N 36°51' E 000°08'1616.2
2015-Jun-03 09:33N 36°46' W 000°11'1716.3
2015-Jun-03 08:31N 36°41' W 000°32'6516.1
2015-Jun-03 04:29N 36°25' W 001°50'1516.0
2015-Jun-03 03:33N 36°22' W 002°08'1616.3
2015-Jun-03 02:33N 36°18' W 002°28'1815.4
2015-Jun-03 01:25N 36°16' W 002°49'1416.3
2015-Jun-03 00:33N 36°13' W 003°07'22516.1
2015-Jun-02 10:33N 36°05' W 007°45'1616.4
2015-Jun-02 09:33N 36°10' W 008°05'1616.1
2015-Jun-02 08:33N 36°15' W 008°24'1616.0
2015-Jun-02 07:33N 36°21' W 008°42'1413.4
2015-Jun-02 06:33N 36°24' W 008°59'1616.5
2015-Jun-02 05:33N 36°29' W 009°18'1616.1
2015-Jun-02 04:33N 36°41' W 009°32'1615.9
2015-Jun-02 03:33N 36°55' W 009°41'1716.4
2015-Jun-02 02:33N 37°11' W 009°46'1616.4
2015-Jun-02 01:33N 37°27' W 009°50'1616.2
2015-Jun-02 00:33N 37°42' W 009°56'1716.5
2015-Jun-01 23:31N 37°59' W 010°01'1616.2
2015-Jun-01 22:33N 38°14' W 010°04'1616.4
2015-Jun-01 21:33N 38°30' W 010°09'1616.5
2015-Jun-01 20:33N 38°46' W 010°12'1716.6
2015-Jun-01 19:33N 39°03' W 010°12'1716.5
2015-Jun-01 18:33N 39°20' W 010°12'1816.4
2015-Jun-01 17:26N 39°38' W 010°12'  
Track history (hours):
 
Tides and Currents Weather Stations Pressure Air Temp Water Temp Dewpoint Dewpoint Depression Visibility Wind Speed Wind Dir Waves Ship Positions

Umm Slal

Last reported at 2015-Jun-08 19:27 UTC. Time now 2015-Jul-05 15:04 UTC.
Position N 30°32' E 032°19'.
Warning: this ship's position is 26 days out of date.

Length 345 m; draft 9.3 m.

Type: Ship (hazmat cat A). MMSI: 538003300.

Date/timePositionNaut miles runAvg speedWind from/ knotsBaromVisibWave heightAir tempDewpointWater temp
2015-Jun-08 19:27N 30°32' E 032°19'6 6.7
2015-Jun-08 18:33N 30°38' E 032°20'12 8.6
2015-Jun-08 17:10N 30°50' E 032°19'5 8.8
2015-Jun-08 16:33N 30°56' E 032°19'9 9.1
2015-Jun-08 15:33N 31°05' E 032°19'8 8.5
2015-Jun-08 14:33N 31°13' E 032°21'9 9.0
2015-Jun-08 13:33N 31°22' E 032°23'5 5.3
2015-Jun-08 12:33N 31°25' E 032°18'2 2.2
2015-Jun-08 11:29N 31°24' E 032°16'0 0.0
2015-Jun-08 10:33N 31°24' E 032°16'0 0.0
2015-Jun-08 09:24N 31°24' E 032°16'0 0.0
2015-Jun-08 08:31N 31°24' E 032°16'0 0.0
2015-Jun-08 07:32N 31°24' E 032°16'0 0.0
2015-Jun-08 06:32N 31°24' E 032°16'0 0.0
2015-Jun-08 05:33N 31°24' E 032°16'0 0.0
2015-Jun-08 04:31N 31°24' E 032°16'0 0.0
2015-Jun-08 03:31N 31°24' E 032°16'0 0.0
2015-Jun-08 00:24N 31°24' E 032°16'0 0.0
2015-Jun-07 23:19N 31°24' E 032°16'0 0.0
2015-Jun-07 21:23N 31°24' E 032°16'0 0.0
2015-Jun-07 19:10N 31°24' E 032°16'0 0.1
2015-Jun-07 17:09N 31°24' E 032°16'1 1.7
2015-Jun-07 16:33N 31°25' E 032°16'1211.5
2015-Jun-07 15:33N 31°35' E 032°09'1716.0
2015-Jun-07 14:30N 31°46' E 031°54'2016.2
2015-Jun-07 13:17N 31°54' E 031°33'1516.3
2015-Jun-07 12:21N 31°59' E 031°16'78716.1
2015-Jun-05 11:33N 35°47' E 016°09'1616.3
2015-Jun-05 10:33N 35°52' E 015°50'1616.2
2015-Jun-05 09:33N 35°58' E 015°31'1616.1
2015-Jun-05 08:33N 36°03' E 015°12'1616.2
2015-Jun-05 07:33N 36°08' E 014°53'1616.0
2015-Jun-05 06:33N 36°12' E 014°34'1616.0
2015-Jun-05 05:33N 36°17' E 014°15'1616.1
2015-Jun-05 04:33N 36°22' E 013°56'1616.3
2015-Jun-05 03:33N 36°29' E 013°37'1716.4
2015-Jun-05 02:31N 36°36' E 013°18'3916.2
2015-Jun-05 00:06N 36°51' E 012°33'1116.7
2015-Jun-04 23:26N 36°56' E 012°20'1716.2
2015-Jun-04 22:24N 37°03' E 012°01'1416.4
2015-Jun-04 21:33N 37°09' E 011°45'1616.3
2015-Jun-04 20:33N 37°17' E 011°27'1716.3
2015-Jun-04 19:32N 37°24' E 011°09'1616.2
2015-Jun-04 18:33N 37°31' E 010°51'1616.3
2015-Jun-04 17:33N 37°37' E 010°32'1916.1
2015-Jun-04 16:21N 37°45' E 010°09'1316.0
2015-Jun-04 15:33N 37°47' E 009°54'1616.2
2015-Jun-04 14:34N 37°50' E 009°33'1616.1
2015-Jun-04 13:33N 37°53' E 009°13'1616.2
2015-Jun-04 12:33N 37°58' E 008°54'1616.2
2015-Jun-04 11:33N 37°56' E 008°33'1616.2
2015-Jun-04 10:33N 37°54' E 008°13'1616.0
2015-Jun-04 09:32N 37°52' E 007°52'3616.4
2015-Jun-04 07:20N 37°48' E 007°07'9516.2
2015-Jun-04 01:29N 37°37' E 005°08'1516.2
2015-Jun-04 00:33N 37°35' E 004°49'1616.3
2015-Jun-03 23:32N 37°33' E 004°28'1616.7
2015-Jun-03 22:33N 37°30' E 004°08'1616.3
2015-Jun-03 21:33N 37°28' E 003°47'1616.5
2015-Jun-03 20:33N 37°26' E 003°27'2016.2
2015-Jun-03 19:19N 37°23' E 003°02'1216.3
2015-Jun-03 18:33N 37°22' E 002°47'1616.3
2015-Jun-03 17:33N 37°20' E 002°26'1616.1
2015-Jun-03 16:33N 37°17' E 002°06'1716.6
2015-Jun-03 15:33N 37°12' E 001°46'1716.6
2015-Jun-03 14:33N 37°09' E 001°26'1616.3
2015-Jun-03 13:34N 37°06' E 001°06'1616.1
2015-Jun-03 12:33N 37°00' E 000°47'1616.1
2015-Jun-03 11:33N 36°56' E 000°28'1616.4
2015-Jun-03 10:33N 36°51' E 000°08'1616.2
2015-Jun-03 09:33N 36°46' W 000°11'1716.3
2015-Jun-03 08:31N 36°41' W 000°32'6516.1
2015-Jun-03 04:29N 36°25' W 001°50'1516.0
2015-Jun-03 03:33N 36°22' W 002°08'1616.3
2015-Jun-03 02:33N 36°18' W 002°28'1815.4
2015-Jun-03 01:25N 36°16' W 002°49'1416.3
2015-Jun-03 00:33N 36°13' W 003°07'22516.1
2015-Jun-02 10:33N 36°05' W 007°45'1616.4
2015-Jun-02 09:33N 36°10' W 008°05'1616.1
2015-Jun-02 08:33N 36°15' W 008°24'1616.0
2015-Jun-02 07:33N 36°21' W 008°42'1413.4
2015-Jun-02 06:33N 36°24' W 008°59'1616.5
2015-Jun-02 05:33N 36°29' W 009°18'1616.1
2015-Jun-02 04:33N 36°41' W 009°32'1615.9
2015-Jun-02 03:33N 36°55' W 009°41'1716.4
2015-Jun-02 02:33N 37°11' W 009°46'1616.4
2015-Jun-02 01:33N 37°27' W 009°50'1616.2
2015-Jun-02 00:33N 37°42' W 009°56'1716.5
2015-Jun-01 23:31N 37°59' W 010°01'1616.2
2015-Jun-01 22:33N 38°14' W 010°04'1616.4
2015-Jun-01 21:33N 38°30' W 010°09'1616.5
2015-Jun-01 20:33N 38°46' W 010°12'1716.6
2015-Jun-01 19:33N 39°03' W 010°12'1716.5
2015-Jun-01 18:33N 39°20' W 010°12'1816.4
2015-Jun-01 17:26N 39°38' W 010°12'  

Dump ship's entire track history